sensor_id;sensor_type;location;lat;lon;timestamp;temperature;humidity
76120;DHT22;64852;48.092;-1.640;2023-03-26T00:00:26;11.20;99.90
76120;DHT22;64852;48.092;-1.640;2023-03-26T00:02:52;11.00;99.90
76120;DHT22;64852;48.092;-1.640;2023-03-26T00:05:18;10.90;99.90
76120;DHT22;64852;48.092;-1.640;2023-03-26T00:07:44;10.90;99.90
76120;DHT22;64852;48.092;-1.640;2023-03-26T00:10:10;10.70;99.90
76120;DHT22;64852;48.092;-1.640;2023-03-26T00:12:35;10.70;99.90
76120;DHT22;64852;48.092;-1.640;2023-03-26T00:15:02;10.60;99.90
76120;DHT22;64852;48.092;-1.640;2023-03-26T00:17:28;10.40;99.90
76120;DHT22;64852;48.092;-1.640;2023-03-26T00:19:54;10.50;99.90
76120;DHT22;64852;48.092;-1.640;2023-03-26T00:22:21;10.40;99.90
76120;DHT22;64852;48.092;-1.640;2023-03-26T00:24:47;10.40;99.90
76120;DHT22;64852;48.092;-1.640;2023-03-26T00:27:15;10.40;99.90
76120;DHT22;64852;48.092;-1.640;2023-03-26T00:29:41;10.40;99.90
76120;DHT22;64852;48.092;-1.640;2023-03-26T00:32:07;10.40;99.90
76120;DHT22;64852;48.092;-1.640;2023-03-26T00:34:32;10.40;99.90
76120;DHT22;64852;48.092;-1.640;2023-03-26T00:36:58;10.40;99.90
76120;DHT22;64852;48.092;-1.640;2023-03-26T00:39:28;10.40;99.90
76120;DHT22;64852;48.092;-1.640;2023-03-26T00:41:54;10.40;99.90
76120;DHT22;64852;48.092;-1.640;2023-03-26T00:44:19;10.40;99.90
76120;DHT22;64852;48.092;-1.640;2023-03-26T00:46:45;10.40;99.90
76120;DHT22;64852;48.092;-1.640;2023-03-26T00:49:10;10.40;99.90
76120;DHT22;64852;48.092;-1.640;2023-03-26T00:51:39;10.30;99.90
76120;DHT22;64852;48.092;-1.640;2023-03-26T00:54:05;10.40;99.90
76120;DHT22;64852;48.092;-1.640;2023-03-26T00:56:32;10.30;99.90
76120;DHT22;64852;48.092;-1.640;2023-03-26T00:58:58;10.30;99.90
76120;DHT22;64852;48.092;-1.640;2023-03-26T01:01:24;10.30;99.90
76120;DHT22;64852;48.092;-1.640;2023-03-26T01:03:53;10.20;99.90
76120;DHT22;64852;48.092;-1.640;2023-03-26T01:08:52;10.20;99.90
76120;DHT22;64852;48.092;-1.640;2023-03-26T01:11:23;10.20;99.90
76120;DHT22;64852;48.092;-1.640;2023-03-26T01:13:50;10.20;99.90
76120;DHT22;64852;48.092;-1.640;2023-03-26T01:16:22;10.20;99.90
76120;DHT22;64852;48.092;-1.640;2023-03-26T01:18:48;10.20;99.90
76120;DHT22;64852;48.092;-1.640;2023-03-26T01:21:19;10.20;99.90
76120;DHT22;64852;48.092;-1.640;2023-03-26T01:23:48;8.70;99.90
76120;DHT22;64852;48.092;-1.640;2023-03-26T01:26:23;10.10;99.90
76120;DHT22;64852;48.092;-1.640;2023-03-26T01:28:54;10.20;99.90
76120;DHT22;64852;48.092;-1.640;2023-03-26T01:31:24;10.20;99.90
76120;DHT22;64852;48.092;-1.640;2023-03-26T01:33:56;10.30;99.90
76120;DHT22;64852;48.092;-1.640;2023-03-26T01:36:24;10.30;99.90
76120;DHT22;64852;48.092;-1.640;2023-03-26T01:41:33;10.30;99.90
76120;DHT22;64852;48.092;-1.640;2023-03-26T01:44:22;10.30;99.90
76120;DHT22;64852;48.092;-1.640;2023-03-26T01:46:50;10.20;99.90
76120;DHT22;64852;48.092;-1.640;2023-03-26T01:49:16;10.40;99.90
76120;DHT22;64852;48.092;-1.640;2023-03-26T01:51:42;10.20;99.90
76120;DHT22;64852;48.092;-1.640;2023-03-26T01:54:09;10.10;99.90
76120;DHT22;64852;48.092;-1.640;2023-03-26T01:56:48;10.10;99.90
76120;DHT22;64852;48.092;-1.640;2023-03-26T02:05:15;10.00;99.90
76120;DHT22;64852;48.092;-1.640;2023-03-26T02:09:50;10.00;99.90
76120;DHT22;64852;48.092;-1.640;2023-03-26T02:12:18;10.00;99.90
76120;DHT22;64852;48.092;-1.640;2023-03-26T02:14:44;10.00;99.90
76120;DHT22;64852;48.092;-1.640;2023-03-26T02:17:10;9.90;99.90
76120;DHT22;64852;48.092;-1.640;2023-03-26T02:19:36;10.00;99.90
76120;DHT22;64852;48.092;-1.640;2023-03-26T02:22:07;9.90;99.90
76120;DHT22;64852;48.092;-1.640;2023-03-26T02:24:36;9.90;99.90
76120;DHT22;64852;48.092;-1.640;2023-03-26T02:27:01;9.80;99.90
76120;DHT22;64852;48.092;-1.640;2023-03-26T02:29:27;9.90;99.90
76120;DHT22;64852;48.092;-1.640;2023-03-26T02:31:52;9.90;99.90
76120;DHT22;64852;48.092;-1.640;2023-03-26T02:34:18;9.80;99.90
76120;DHT22;64852;48.092;-1.640;2023-03-26T02:36:43;9.90;99.90
76120;DHT22;64852;48.092;-1.640;2023-03-26T02:39:09;9.90;99.90
76120;DHT22;64852;48.092;-1.640;2023-03-26T02:41:38;9.90;99.90
76120;DHT22;64852;48.092;-1.640;2023-03-26T02:44:04;9.90;99.90
76120;DHT22;64852;48.092;-1.640;2023-03-26T02:46:32;9.80;99.90
76120;DHT22;64852;48.092;-1.640;2023-03-26T02:48:58;9.90;99.90
76120;DHT22;64852;48.092;-1.640;2023-03-26T02:51:24;9.90;99.90
76120;DHT22;64852;48.092;-1.640;2023-03-26T02:53:50;9.90;99.90
76120;DHT22;64852;48.092;-1.640;2023-03-26T02:56:17;10.00;99.90
76120;DHT22;64852;48.092;-1.640;2023-03-26T02:58:43;10.00;99.90
76120;DHT22;64852;48.092;-1.640;2023-03-26T03:01:09;10.00;99.90
76120;DHT22;64852;48.092;-1.640;2023-03-26T03:03:34;10.00;99.90
76120;DHT22;64852;48.092;-1.640;2023-03-26T03:06:01;10.10;99.90
76120;DHT22;64852;48.092;-1.640;2023-03-26T03:08:27;10.10;99.90
76120;DHT22;64852;48.092;-1.640;2023-03-26T03:10:57;10.00;99.90
76120;DHT22;64852;48.092;-1.640;2023-03-26T03:13:23;10.10;99.90
76120;DHT22;64852;48.092;-1.640;2023-03-26T03:15:49;10.10;99.90
76120;DHT22;64852;48.092;-1.640;2023-03-26T03:18:15;8.90;99.90
76120;DHT22;64852;48.092;-1.640;2023-03-26T03:20:40;10.00;99.90
76120;DHT22;64852;48.092;-1.640;2023-03-26T03:23:06;10.00;99.90
76120;DHT22;64852;48.092;-1.640;2023-03-26T03:25:31;10.10;99.90
76120;DHT22;64852;48.092;-1.640;2023-03-26T03:27:58;10.00;99.90
76120;DHT22;64852;48.092;-1.640;2023-03-26T03:30:23;10.00;99.90
76120;DHT22;64852;48.092;-1.640;2023-03-26T03:32:49;10.10;99.90
76120;DHT22;64852;48.092;-1.640;2023-03-26T03:35:14;10.00;99.90
76120;DHT22;64852;48.092;-1.640;2023-03-26T03:37:40;10.10;99.90
76120;DHT22;64852;48.092;-1.640;2023-03-26T03:40:05;10.10;99.90
76120;DHT22;64852;48.092;-1.640;2023-03-26T03:42:35;10.20;99.90
76120;DHT22;64852;48.092;-1.640;2023-03-26T03:45:01;10.20;99.90
76120;DHT22;64852;48.092;-1.640;2023-03-26T03:47:26;10.20;99.90
76120;DHT22;64852;48.092;-1.640;2023-03-26T03:49:52;10.20;99.90
76120;DHT22;64852;48.092;-1.640;2023-03-26T03:52:17;10.30;99.90
76120;DHT22;64852;48.092;-1.640;2023-03-26T03:54:43;10.20;99.90
76120;DHT22;64852;48.092;-1.640;2023-03-26T03:57:09;10.20;99.90
76120;DHT22;64852;48.092;-1.640;2023-03-26T03:59:34;10.20;99.90
76120;DHT22;64852;48.092;-1.640;2023-03-26T04:01:59;10.20;99.90
76120;DHT22;64852;48.092;-1.640;2023-03-26T04:04:25;10.30;99.90
76120;DHT22;64852;48.092;-1.640;2023-03-26T04:06:51;10.30;99.90
76120;DHT22;64852;48.092;-1.640;2023-03-26T04:09:17;10.30;99.90
76120;DHT22;64852;48.092;-1.640;2023-03-26T04:11:42;10.20;99.90
76120;DHT22;64852;48.092;-1.640;2023-03-26T04:14:08;10.20;99.90
76120;DHT22;64852;48.092;-1.640;2023-03-26T04:16:34;10.20;99.90
76120;DHT22;64852;48.092;-1.640;2023-03-26T04:19:00;10.00;99.90
76120;DHT22;64852;48.092;-1.640;2023-03-26T04:21:26;10.00;99.90
76120;DHT22;64852;48.092;-1.640;2023-03-26T04:23:54;10.00;99.90
76120;DHT22;64852;48.092;-1.640;2023-03-26T04:26:20;9.90;99.90
76120;DHT22;64852;48.092;-1.640;2023-03-26T04:31:12;9.80;99.90
76120;DHT22;64852;48.092;-1.640;2023-03-26T04:33:40;9.70;99.90
76120;DHT22;64852;48.092;-1.640;2023-03-26T04:36:11;9.70;99.90
76120;DHT22;64852;48.092;-1.640;2023-03-26T04:38:39;9.70;99.90
76120;DHT22;64852;48.092;-1.640;2023-03-26T04:41:05;9.70;99.90
76120;DHT22;64852;48.092;-1.640;2023-03-26T04:43:32;9.70;99.90
76120;DHT22;64852;48.092;-1.640;2023-03-26T04:46:00;9.60;99.90
76120;DHT22;64852;48.092;-1.640;2023-03-26T04:48:27;9.60;99.90
76120;DHT22;64852;48.092;-1.640;2023-03-26T04:50:53;9.70;99.90
76120;DHT22;64852;48.092;-1.640;2023-03-26T04:53:19;9.70;99.90
76120;DHT22;64852;48.092;-1.640;2023-03-26T04:58:14;9.60;99.90
76120;DHT22;64852;48.092;-1.640;2023-03-26T05:00:40;9.70;99.90
76120;DHT22;64852;48.092;-1.640;2023-03-26T05:03:08;9.60;99.90
76120;DHT22;64852;48.092;-1.640;2023-03-26T05:05:34;9.70;99.90
76120;DHT22;64852;48.092;-1.640;2023-03-26T05:08:00;9.60;99.90
76120;DHT22;64852;48.092;-1.640;2023-03-26T05:10:25;9.60;99.90
76120;DHT22;64852;48.092;-1.640;2023-03-26T05:12:51;9.60;99.90
76120;DHT22;64852;48.092;-1.640;2023-03-26T05:15:16;9.60;99.90
76120;DHT22;64852;48.092;-1.640;2023-03-26T05:17:42;9.50;99.90
76120;DHT22;64852;48.092;-1.640;2023-03-26T05:20:26;9.60;99.90
76120;DHT22;64852;48.092;-1.640;2023-03-26T05:22:52;9.60;99.90
76120;DHT22;64852;48.092;-1.640;2023-03-26T05:25:17;9.60;99.90
76120;DHT22;64852;48.092;-1.640;2023-03-26T05:27:43;9.60;99.90
76120;DHT22;64852;48.092;-1.640;2023-03-26T05:30:10;9.40;99.90
76120;DHT22;64852;48.092;-1.640;2023-03-26T05:32:37;9.50;99.90
76120;DHT22;64852;48.092;-1.640;2023-03-26T05:35:03;9.50;99.90
76120;DHT22;64852;48.092;-1.640;2023-03-26T05:37:28;9.40;99.90
76120;DHT22;64852;48.092;-1.640;2023-03-26T05:39:55;9.40;99.90
76120;DHT22;64852;48.092;-1.640;2023-03-26T05:42:21;9.30;99.90
76120;DHT22;64852;48.092;-1.640;2023-03-26T05:44:47;9.20;99.90
76120;DHT22;64852;48.092;-1.640;2023-03-26T05:47:12;9.90;99.90
76120;DHT22;64852;48.092;-1.640;2023-03-26T05:49:38;9.20;99.90
76120;DHT22;64852;48.092;-1.640;2023-03-26T05:52:03;9.20;99.90
76120;DHT22;64852;48.092;-1.640;2023-03-26T05:54:29;9.10;99.90
76120;DHT22;64852;48.092;-1.640;2023-03-26T05:56:55;10.00;99.90
76120;DHT22;64852;48.092;-1.640;2023-03-26T05:59:21;9.00;99.90
76120;DHT22;64852;48.092;-1.640;2023-03-26T06:01:47;9.70;99.90
76120;DHT22;64852;48.092;-1.640;2023-03-26T06:04:13;9.00;99.90
76120;DHT22;64852;48.092;-1.640;2023-03-26T06:06:40;9.00;99.90
76120;DHT22;64852;48.092;-1.640;2023-03-26T06:09:07;9.00;99.90
76120;DHT22;64852;48.092;-1.640;2023-03-26T06:11:32;9.30;99.90
76120;DHT22;64852;48.092;-1.640;2023-03-26T06:13:58;9.50;99.90
76120;DHT22;64852;48.092;-1.640;2023-03-26T06:16:24;8.90;99.90
76120;DHT22;64852;48.092;-1.640;2023-03-26T06:18:49;9.00;99.90
76120;DHT22;64852;48.092;-1.640;2023-03-26T06:21:16;9.40;99.90
76120;DHT22;64852;48.092;-1.640;2023-03-26T06:23:42;9.50;99.90
76120;DHT22;64852;48.092;-1.640;2023-03-26T06:26:07;8.90;99.90
76120;DHT22;64852;48.092;-1.640;2023-03-26T06:28:33;8.80;99.90
76120;DHT22;64852;48.092;-1.640;2023-03-26T06:30:59;8.70;99.90
76120;DHT22;64852;48.092;-1.640;2023-03-26T06:33:25;8.80;99.90
76120;DHT22;64852;48.092;-1.640;2023-03-26T06:35:51;8.80;99.90
76120;DHT22;64852;48.092;-1.640;2023-03-26T06:38:17;9.30;99.90
76120;DHT22;64852;48.092;-1.640;2023-03-26T06:40:42;9.30;99.90
76120;DHT22;64852;48.092;-1.640;2023-03-26T06:43:08;8.70;99.90
76120;DHT22;64852;48.092;-1.640;2023-03-26T06:45:33;8.70;99.90
76120;DHT22;64852;48.092;-1.640;2023-03-26T06:47:59;8.70;99.90
76120;DHT22;64852;48.092;-1.640;2023-03-26T06:50:25;9.00;99.90
76120;DHT22;64852;48.092;-1.640;2023-03-26T06:52:54;8.80;99.90
76120;DHT22;64852;48.092;-1.640;2023-03-26T06:55:19;8.80;99.90
76120;DHT22;64852;48.092;-1.640;2023-03-26T06:57:48;8.90;99.90
76120;DHT22;64852;48.092;-1.640;2023-03-26T07:00:14;9.00;99.90
76120;DHT22;64852;48.092;-1.640;2023-03-26T07:02:40;9.00;99.90
76120;DHT22;64852;48.092;-1.640;2023-03-26T07:05:05;9.00;99.90
76120;DHT22;64852;48.092;-1.640;2023-03-26T07:07:31;9.10;99.90
76120;DHT22;64852;48.092;-1.640;2023-03-26T07:09:57;9.30;99.90
76120;DHT22;64852;48.092;-1.640;2023-03-26T07:12:22;9.10;99.90
76120;DHT22;64852;48.092;-1.640;2023-03-26T07:14:47;9.30;99.90
76120;DHT22;64852;48.092;-1.640;2023-03-26T07:17:13;9.30;99.90
76120;DHT22;64852;48.092;-1.640;2023-03-26T07:19:38;9.30;99.90
76120;DHT22;64852;48.092;-1.640;2023-03-26T07:22:04;9.80;99.90
76120;DHT22;64852;48.092;-1.640;2023-03-26T07:24:30;9.70;99.90
76120;DHT22;64852;48.092;-1.640;2023-03-26T07:32:14;10.00;99.90
76120;DHT22;64852;48.092;-1.640;2023-03-26T07:45:40;10.20;99.90
76120;DHT22;64852;48.092;-1.640;2023-03-26T07:47:40;10.20;99.90
76120;DHT22;64852;48.092;-1.640;2023-03-26T07:50:06;10.30;99.90
76120;DHT22;64852;48.092;-1.640;2023-03-26T07:52:32;10.20;99.90
76120;DHT22;64852;48.092;-1.640;2023-03-26T07:54:58;10.30;99.90
76120;DHT22;64852;48.092;-1.640;2023-03-26T07:57:32;10.40;99.90
76120;DHT22;64852;48.092;-1.640;2023-03-26T08:00:16;10.50;99.90
76120;DHT22;64852;48.092;-1.640;2023-03-26T08:02:45;10.70;99.90
76120;DHT22;64852;48.092;-1.640;2023-03-26T08:10:55;10.80;99.90
76120;DHT22;64852;48.092;-1.640;2023-03-26T08:13:36;10.80;99.90
76120;DHT22;64852;48.092;-1.640;2023-03-26T08:16:09;10.70;99.90
76120;DHT22;64852;48.092;-1.640;2023-03-26T08:21:12;10.80;99.90
76120;DHT22;64852;48.092;-1.640;2023-03-26T08:26:36;10.60;99.90
76120;DHT22;64852;48.092;-1.640;2023-03-26T08:31:38;10.40;99.90
76120;DHT22;64852;48.092;-1.640;2023-03-26T08:34:04;10.10;99.90
76120;DHT22;64852;48.092;-1.640;2023-03-26T08:36:30;9.90;99.90
76120;DHT22;64852;48.092;-1.640;2023-03-26T08:38:56;9.70;99.90
76120;DHT22;64852;48.092;-1.640;2023-03-26T08:49:26;9.20;99.90
76120;DHT22;64852;48.092;-1.640;2023-03-26T08:54:46;9.10;99.90
76120;DHT22;64852;48.092;-1.640;2023-03-26T09:42:02;8.20;99.90
76120;DHT22;64852;48.092;-1.640;2023-03-26T09:54:50;8.20;99.90
76120;DHT22;64852;48.092;-1.640;2023-03-26T10:05:43;8.70;99.90
76120;DHT22;64852;48.092;-1.640;2023-03-26T10:09:00;8.60;99.90
76120;DHT22;64852;48.092;-1.640;2023-03-26T10:13:32;8.70;99.90
76120;DHT22;64852;48.092;-1.640;2023-03-26T10:16:16;8.90;99.90
76120;DHT22;64852;48.092;-1.640;2023-03-26T10:21:33;9.10;99.90
76120;DHT22;64852;48.092;-1.640;2023-03-26T10:24:14;9.20;99.90
76120;DHT22;64852;48.092;-1.640;2023-03-26T10:29:28;9.80;99.90
76120;DHT22;64852;48.092;-1.640;2023-03-26T10:32:08;9.80;99.90
76120;DHT22;64852;48.092;-1.640;2023-03-26T10:37:13;9.70;99.90
76120;DHT22;64852;48.092;-1.640;2023-03-26T10:55:38;10.50;99.90
76120;DHT22;64852;48.092;-1.640;2023-03-26T11:00:41;10.40;99.90
76120;DHT22;64852;48.092;-1.640;2023-03-26T11:08:34;10.50;99.90
76120;DHT22;64852;48.092;-1.640;2023-03-26T11:19:08;10.30;99.90
76120;DHT22;64852;48.092;-1.640;2023-03-26T11:22:22;10.20;99.90
76120;DHT22;64852;48.092;-1.640;2023-03-26T11:24:27;10.20;99.90
76120;DHT22;64852;48.092;-1.640;2023-03-26T11:26:57;10.20;99.90
76120;DHT22;64852;48.092;-1.640;2023-03-26T11:32:19;10.40;99.90
76120;DHT22;64852;48.092;-1.640;2023-03-26T11:37:22;10.50;99.90
76120;DHT22;64852;48.092;-1.640;2023-03-26T11:39:50;10.60;99.90
76120;DHT22;64852;48.092;-1.640;2023-03-26T11:42:17;10.70;99.90
76120;DHT22;64852;48.092;-1.640;2023-03-26T11:44:48;10.70;99.90
76120;DHT22;64852;48.092;-1.640;2023-03-26T11:47:17;10.60;99.90
76120;DHT22;64852;48.092;-1.640;2023-03-26T11:49:45;10.60;99.90
76120;DHT22;64852;48.092;-1.640;2023-03-26T11:52:12;10.60;99.90
76120;DHT22;64852;48.092;-1.640;2023-03-26T11:54:39;10.70;99.90
76120;DHT22;64852;48.092;-1.640;2023-03-26T11:57:07;10.80;99.90
76120;DHT22;64852;48.092;-1.640;2023-03-26T11:59:43;10.70;99.90
76120;DHT22;64852;48.092;-1.640;2023-03-26T12:04:37;10.80;99.90
76120;DHT22;64852;48.092;-1.640;2023-03-26T12:07:11;10.80;99.90
76120;DHT22;64852;48.092;-1.640;2023-03-26T12:12:15;10.70;99.90
76120;DHT22;64852;48.092;-1.640;2023-03-26T12:14:41;10.90;99.90
76120;DHT22;64852;48.092;-1.640;2023-03-26T12:17:10;11.10;99.90
76120;DHT22;64852;48.092;-1.640;2023-03-26T12:19:40;11.30;99.90
76120;DHT22;64852;48.092;-1.640;2023-03-26T12:22:11;11.70;99.90
76120;DHT22;64852;48.092;-1.640;2023-03-26T12:24:59;12.30;99.90
76120;DHT22;64852;48.092;-1.640;2023-03-26T12:27:25;13.00;99.90
76120;DHT22;64852;48.092;-1.640;2023-03-26T12:30:38;13.50;99.90
76120;DHT22;64852;48.092;-1.640;2023-03-26T12:32:48;14.40;99.90
76120;DHT22;64852;48.092;-1.640;2023-03-26T12:35:14;14.90;99.90
76120;DHT22;64852;48.092;-1.640;2023-03-26T12:37:43;15.60;99.90
76120;DHT22;64852;48.092;-1.640;2023-03-26T12:40:51;16.20;99.90
76120;DHT22;64852;48.092;-1.640;2023-03-26T12:43:01;16.20;99.90
76120;DHT22;64852;48.092;-1.640;2023-03-26T12:45:36;15.20;99.90
76120;DHT22;64852;48.092;-1.640;2023-03-26T12:48:02;16.00;99.90
76120;DHT22;64852;48.092;-1.640;2023-03-26T12:50:34;15.30;99.90
76120;DHT22;64852;48.092;-1.640;2023-03-26T12:53:21;15.00;99.90
76120;DHT22;64852;48.092;-1.640;2023-03-26T13:00:47;15.70;99.90
76120;DHT22;64852;48.092;-1.640;2023-03-26T13:03:16;16.50;99.90
76120;DHT22;64852;48.092;-1.640;2023-03-26T13:06:29;17.30;99.90
76120;DHT22;64852;48.092;-1.640;2023-03-26T13:11:20;16.90;99.90
76120;DHT22;64852;48.092;-1.640;2023-03-26T13:16:26;16.90;99.90
76120;DHT22;64852;48.092;-1.640;2023-03-26T13:18:58;17.60;99.90
76120;DHT22;64852;48.092;-1.640;2023-03-26T13:26:44;18.20;98.90
76120;DHT22;64852;48.092;-1.640;2023-03-26T13:29:17;17.60;97.30
76120;DHT22;64852;48.092;-1.640;2023-03-26T13:37:01;16.10;99.90
76120;DHT22;64852;48.092;-1.640;2023-03-26T13:39:32;15.50;99.90
76120;DHT22;64852;48.092;-1.640;2023-03-26T13:44:40;14.00;99.90
76120;DHT22;64852;48.092;-1.640;2023-03-26T13:47:09;13.80;99.90
76120;DHT22;64852;48.092;-1.640;2023-03-26T13:52:16;13.10;99.90
76120;DHT22;64852;48.092;-1.640;2023-03-26T13:54:47;13.30;99.90
76120;DHT22;64852;48.092;-1.640;2023-03-26T13:57:17;14.40;99.90
76120;DHT22;64852;48.092;-1.640;2023-03-26T14:02:27;17.20;99.90
76120;DHT22;64852;48.092;-1.640;2023-03-26T14:07:41;19.30;99.90
76120;DHT22;64852;48.092;-1.640;2023-03-26T14:10:10;20.40;99.90
76120;DHT22;64852;48.092;-1.640;2023-03-26T14:15:03;21.80;99.90
76120;DHT22;64852;48.092;-1.640;2023-03-26T14:17:32;22.30;99.90
76120;DHT22;64852;48.092;-1.640;2023-03-26T14:53:47;20.20;78.60
76120;DHT22;64852;48.092;-1.640;2023-03-26T14:56:34;20.30;82.20
76120;DHT22;64852;48.092;-1.640;2023-03-26T14:59:06;20.90;84.60
76120;DHT22;64852;48.092;-1.640;2023-03-26T15:17:45;19.50;60.80
76120;DHT22;64852;48.092;-1.640;2023-03-26T15:20:25;19.00;60.50
76120;DHT22;64852;48.092;-1.640;2023-03-26T15:48:53;17.30;82.70
76120;DHT22;64852;48.092;-1.640;2023-03-26T15:51:21;17.90;96.70
76120;DHT22;64852;48.092;-1.640;2023-03-26T15:53:52;18.90;79.80
76120;DHT22;64852;48.092;-1.640;2023-03-26T15:56:23;19.40;85.80
76120;DHT22;64852;48.092;-1.640;2023-03-26T16:06:29;18.20;61.60
76120;DHT22;64852;48.092;-1.640;2023-03-26T16:11:43;16.70;70.10
76120;DHT22;64852;48.092;-1.640;2023-03-26T16:14:10;16.10;80.20
76120;DHT22;64852;48.092;-1.640;2023-03-26T16:21:59;16.20;91.80
76120;DHT22;64852;48.092;-1.640;2023-03-26T16:24:29;15.90;95.80
76120;DHT22;64852;48.092;-1.640;2023-03-26T16:26:59;16.00;98.70
76120;DHT22;64852;48.092;-1.640;2023-03-26T16:29:27;15.90;98.70
76120;DHT22;64852;48.092;-1.640;2023-03-26T16:34:49;16.10;96.50
76120;DHT22;64852;48.092;-1.640;2023-03-26T16:55:18;14.40;99.10
76120;DHT22;64852;48.092;-1.640;2023-03-26T17:05:55;14.50;99.90
76120;DHT22;64852;48.092;-1.640;2023-03-26T17:10:54;14.80;99.90
76120;DHT22;64852;48.092;-1.640;2023-03-26T17:13:23;14.80;99.90
76120;DHT22;64852;48.092;-1.640;2023-03-26T17:15:58;14.90;99.90
76120;DHT22;64852;48.092;-1.640;2023-03-26T17:21:08;14.80;99.90
76120;DHT22;64852;48.092;-1.640;2023-03-26T17:23:40;14.60;99.90
76120;DHT22;64852;48.092;-1.640;2023-03-26T17:28:51;14.00;99.90
76120;DHT22;64852;48.092;-1.640;2023-03-26T17:31:39;13.70;99.90
76120;DHT22;64852;48.092;-1.640;2023-03-26T17:36:56;13.90;99.90
76120;DHT22;64852;48.092;-1.640;2023-03-26T17:39:47;13.80;99.90
76120;DHT22;64852;48.092;-1.640;2023-03-26T17:42:17;13.40;99.90
76120;DHT22;64852;48.092;-1.640;2023-03-26T17:47:28;13.40;99.90
76120;DHT22;64852;48.092;-1.640;2023-03-26T17:50:05;13.30;99.90
76120;DHT22;64852;48.092;-1.640;2023-03-26T17:53:33;13.10;99.90
76120;DHT22;64852;48.092;-1.640;2023-03-26T17:55:29;13.20;99.90
76120;DHT22;64852;48.092;-1.640;2023-03-26T17:57:59;13.20;99.90
76120;DHT22;64852;48.092;-1.640;2023-03-26T18:00:30;13.00;99.90
76120;DHT22;64852;48.092;-1.640;2023-03-26T18:03:01;12.80;99.90
76120;DHT22;64852;48.092;-1.640;2023-03-26T18:05:29;12.70;99.90
76120;DHT22;64852;48.092;-1.640;2023-03-26T18:13:19;12.80;99.90
76120;DHT22;64852;48.092;-1.640;2023-03-26T18:15:48;12.90;99.90
76120;DHT22;64852;48.092;-1.640;2023-03-26T18:20:47;12.60;99.90
76120;DHT22;64852;48.092;-1.640;2023-03-26T18:26:07;12.60;99.90
76120;DHT22;64852;48.092;-1.640;2023-03-26T18:28:34;12.70;99.90
76120;DHT22;64852;48.092;-1.640;2023-03-26T18:31:18;12.70;99.90
76120;DHT22;64852;48.092;-1.640;2023-03-26T18:33:44;12.60;99.90
76120;DHT22;64852;48.092;-1.640;2023-03-26T18:36:10;12.50;99.90
76120;DHT22;64852;48.092;-1.640;2023-03-26T18:38:36;12.30;99.90
76120;DHT22;64852;48.092;-1.640;2023-03-26T18:41:01;12.20;99.90
76120;DHT22;64852;48.092;-1.640;2023-03-26T18:43:27;12.30;99.90
76120;DHT22;64852;48.092;-1.640;2023-03-26T18:45:53;12.10;99.90
76120;DHT22;64852;48.092;-1.640;2023-03-26T18:48:20;12.10;99.90
76120;DHT22;64852;48.092;-1.640;2023-03-26T18:50:50;12.00;99.90
76120;DHT22;64852;48.092;-1.640;2023-03-26T18:53:18;12.10;99.90
76120;DHT22;64852;48.092;-1.640;2023-03-26T18:55:45;12.20;99.90
76120;DHT22;64852;48.092;-1.640;2023-03-26T18:58:29;12.10;99.90
76120;DHT22;64852;48.092;-1.640;2023-03-26T19:00:56;11.10;99.90
76120;DHT22;64852;48.092;-1.640;2023-03-26T19:03:23;12.20;99.90
76120;DHT22;64852;48.092;-1.640;2023-03-26T19:05:49;12.10;99.90
76120;DHT22;64852;48.092;-1.640;2023-03-26T19:08:16;12.10;99.90
76120;DHT22;64852;48.092;-1.640;2023-03-26T19:10:42;12.00;99.90
76120;DHT22;64852;48.092;-1.640;2023-03-26T19:13:12;12.20;99.90
76120;DHT22;64852;48.092;-1.640;2023-03-26T19:15:38;11.80;99.90
76120;DHT22;64852;48.092;-1.640;2023-03-26T19:18:05;11.80;99.90
76120;DHT22;64852;48.092;-1.640;2023-03-26T19:20:41;11.60;99.90
76120;DHT22;64852;48.092;-1.640;2023-03-26T19:23:08;11.80;99.90
76120;DHT22;64852;48.092;-1.640;2023-03-26T19:25:39;11.80;99.90
76120;DHT22;64852;48.092;-1.640;2023-03-26T19:28:09;11.80;99.90
76120;DHT22;64852;48.092;-1.640;2023-03-26T19:30:38;11.60;99.90
76120;DHT22;64852;48.092;-1.640;2023-03-26T19:33:10;11.50;99.90
76120;DHT22;64852;48.092;-1.640;2023-03-26T19:35:37;11.40;99.90
76120;DHT22;64852;48.092;-1.640;2023-03-26T19:40:44;11.40;99.90
76120;DHT22;64852;48.092;-1.640;2023-03-26T19:43:13;11.50;99.90
76120;DHT22;64852;48.092;-1.640;2023-03-26T19:45:39;11.50;99.90
76120;DHT22;64852;48.092;-1.640;2023-03-26T19:48:07;11.70;99.90
76120;DHT22;64852;48.092;-1.640;2023-03-26T19:50:34;11.60;99.90
76120;DHT22;64852;48.092;-1.640;2023-03-26T19:55:36;11.50;99.90
76120;DHT22;64852;48.092;-1.640;2023-03-26T19:58:02;11.40;99.90
76120;DHT22;64852;48.092;-1.640;2023-03-26T20:00:28;11.40;99.90
76120;DHT22;64852;48.092;-1.640;2023-03-26T20:02:54;11.50;99.90
76120;DHT22;64852;48.092;-1.640;2023-03-26T20:05:20;11.50;99.90
76120;DHT22;64852;48.092;-1.640;2023-03-26T20:07:51;11.50;99.90
76120;DHT22;64852;48.092;-1.640;2023-03-26T20:10:17;11.50;99.90
76120;DHT22;64852;48.092;-1.640;2023-03-26T20:12:43;11.50;99.90
76120;DHT22;64852;48.092;-1.640;2023-03-26T20:15:21;11.40;99.90
76120;DHT22;64852;48.092;-1.640;2023-03-26T20:17:47;11.40;99.90
76120;DHT22;64852;48.092;-1.640;2023-03-26T20:20:22;11.40;99.90
76120;DHT22;64852;48.092;-1.640;2023-03-26T20:22:51;11.50;99.90
76120;DHT22;64852;48.092;-1.640;2023-03-26T20:28:14;11.40;99.90
76120;DHT22;64852;48.092;-1.640;2023-03-26T20:30:40;11.40;99.90
76120;DHT22;64852;48.092;-1.640;2023-03-26T20:33:08;11.50;99.90
76120;DHT22;64852;48.092;-1.640;2023-03-26T20:35:36;11.70;99.90
76120;DHT22;64852;48.092;-1.640;2023-03-26T20:38:02;11.60;99.90
76120;DHT22;64852;48.092;-1.640;2023-03-26T20:40:27;11.60;99.90
76120;DHT22;64852;48.092;-1.640;2023-03-26T20:42:53;11.70;99.90
76120;DHT22;64852;48.092;-1.640;2023-03-26T20:45:21;11.70;99.90
76120;DHT22;64852;48.092;-1.640;2023-03-26T20:47:48;11.70;99.90
76120;DHT22;64852;48.092;-1.640;2023-03-26T20:50:15;11.70;99.90
76120;DHT22;64852;48.092;-1.640;2023-03-26T20:52:41;11.90;99.90
76120;DHT22;64852;48.092;-1.640;2023-03-26T20:55:12;11.80;99.90
76120;DHT22;64852;48.092;-1.640;2023-03-26T20:57:38;11.80;99.90
76120;DHT22;64852;48.092;-1.640;2023-03-26T21:00:03;11.70;99.90
76120;DHT22;64852;48.092;-1.640;2023-03-26T21:02:39;11.60;99.90
76120;DHT22;64852;48.092;-1.640;2023-03-26T21:05:04;11.70;99.90
76120;DHT22;64852;48.092;-1.640;2023-03-26T21:07:33;11.70;99.90
76120;DHT22;64852;48.092;-1.640;2023-03-26T21:09:59;11.50;99.90
76120;DHT22;64852;48.092;-1.640;2023-03-26T21:12:27;11.60;99.90
76120;DHT22;64852;48.092;-1.640;2023-03-26T21:14:54;11.70;99.90
76120;DHT22;64852;48.092;-1.640;2023-03-26T21:17:20;11.80;99.90
76120;DHT22;64852;48.092;-1.640;2023-03-26T21:19:46;11.70;99.90
76120;DHT22;64852;48.092;-1.640;2023-03-26T21:27:29;11.50;99.90
76120;DHT22;64852;48.092;-1.640;2023-03-26T21:29:58;11.60;99.90
76120;DHT22;64852;48.092;-1.640;2023-03-26T21:32:24;11.60;99.90
76120;DHT22;64852;48.092;-1.640;2023-03-26T21:34:50;11.50;99.90